sensor_id;sensor_type;location;lat;lon;timestamp;pressure;altitude;pressure_sealevel;temperature;humidity
62524;BME280;53689;56.878;60.672;2022-11-20T00:02:22;98823.84;;;21.87;22.26
62524;BME280;53689;56.878;60.672;2022-11-20T00:04:49;98820.50;;;21.85;21.38
62524;BME280;53689;56.878;60.672;2022-11-20T00:07:17;98824.03;;;21.85;21.89
62524;BME280;53689;56.878;60.672;2022-11-20T00:09:44;98826.28;;;21.82;20.21
62524;BME280;53689;56.878;60.672;2022-11-20T00:12:11;98829.97;;;21.81;21.05
62524;BME280;53689;56.878;60.672;2022-11-20T00:14:39;98819.56;;;21.78;20.73
62524;BME280;53689;56.878;60.672;2022-11-20T00:17:08;98816.25;;;21.75;20.89
62524;BME280;53689;56.878;60.672;2022-11-20T00:19:35;98813.81;;;21.81;22.23
62524;BME280;53689;56.878;60.672;2022-11-20T00:22:02;98812.13;;;21.80;20.68
62524;BME280;53689;56.878;60.672;2022-11-20T00:24:30;98823.47;;;21.75;21.72
62524;BME280;53689;56.878;60.672;2022-11-20T00:26:57;98818.63;;;21.70;21.02
62524;BME280;53689;56.878;60.672;2022-11-20T00:29:24;98824.22;;;21.69;19.72
62524;BME280;53689;56.878;60.672;2022-11-20T00:31:52;98823.28;;;21.76;21.92
62524;BME280;53689;56.878;60.672;2022-11-20T00:34:20;98824.59;;;21.81;21.17
62524;BME280;53689;56.878;60.672;2022-11-20T00:36:48;98816.25;;;21.75;20.24
62524;BME280;53689;56.878;60.672;2022-11-20T00:39:15;98819.19;;;21.81;21.75
62524;BME280;53689;56.878;60.672;2022-11-20T00:41:42;98814.56;;;21.74;18.97
62524;BME280;53689;56.878;60.672;2022-11-20T00:44:10;98815.03;;;21.78;21.08
62524;BME280;53689;56.878;60.672;2022-11-20T00:46:37;98812.81;;;21.82;21.23
62524;BME280;53689;56.878;60.672;2022-11-20T00:49:04;98812.13;;;21.80;19.02
62524;BME280;53689;56.878;60.672;2022-11-20T00:51:33;98820.44;;;21.78;21.01
62524;BME280;53689;56.878;60.672;2022-11-20T00:54:01;98807.50;;;21.73;21.25
62524;BME280;53689;56.878;60.672;2022-11-20T00:56:28;98801.66;;;21.85;20.46
62524;BME280;53689;56.878;60.672;2022-11-20T00:58:59;98805.38;;;21.84;21.11
62524;BME280;53689;56.878;60.672;2022-11-20T01:01:27;98802.56;;;21.92;22.33
62524;BME280;53689;56.878;60.672;2022-11-20T01:03:57;98803.41;;;21.78;21.11
62524;BME280;53689;56.878;60.672;2022-11-20T01:06:26;98801.81;;;21.83;21.43
62524;BME280;53689;56.878;60.672;2022-11-20T01:08:57;98802.75;;;21.90;22.61
62524;BME280;53689;56.878;60.672;2022-11-20T01:11:27;98807.03;;;21.85;20.02
62524;BME280;53689;56.878;60.672;2022-11-20T01:13:55;98801.56;;;21.78;19.77
62524;BME280;53689;56.878;60.672;2022-11-20T01:16:24;98798.94;;;21.85;20.92
62524;BME280;53689;56.878;60.672;2022-11-20T01:18:53;98797.19;;;21.77;21.19
62524;BME280;53689;56.878;60.672;2022-11-20T01:21:22;98801.66;;;21.85;21.97
62524;BME280;53689;56.878;60.672;2022-11-20T01:23:50;98796.34;;;21.76;21.59
62524;BME280;53689;56.878;60.672;2022-11-20T01:26:20;98790.41;;;21.81;21.66
62524;BME280;53689;56.878;60.672;2022-11-20T01:28:49;98777.09;;;21.80;20.35
62524;BME280;53689;56.878;60.672;2022-11-20T01:31:19;98788.34;;;21.83;22.73
62524;BME280;53689;56.878;60.672;2022-11-20T01:33:48;98786.22;;;21.79;20.66
62524;BME280;53689;56.878;60.672;2022-11-20T01:36:16;98788.63;;;21.58;18.91
62524;BME280;53689;56.878;60.672;2022-11-20T01:38:44;98782.03;;;21.76;21.87
62524;BME280;53689;56.878;60.672;2022-11-20T01:41:13;98778.13;;;21.79;21.96
62524;BME280;53689;56.878;60.672;2022-11-20T01:43:43;98779.44;;;21.83;21.20
62524;BME280;53689;56.878;60.672;2022-11-20T01:46:15;98780.63;;;21.80;21.33
62524;BME280;53689;56.878;60.672;2022-11-20T01:48:47;98772.81;;;21.70;21.07
62524;BME280;53689;56.878;60.672;2022-11-20T01:51:25;98765.66;;;21.78;21.53
62524;BME280;53689;56.878;60.672;2022-11-20T01:53:54;98773.13;;;21.75;21.68
62524;BME280;53689;56.878;60.672;2022-11-20T01:56:23;98763.16;;;21.76;20.69
62524;BME280;53689;56.878;60.672;2022-11-20T01:58:56;98756.63;;;21.85;22.00
62524;BME280;53689;56.878;60.672;2022-11-20T02:01:25;98758.91;;;21.82;20.09
62524;BME280;53689;56.878;60.672;2022-11-20T02:03:52;98761.47;;;21.90;22.31
62524;BME280;53689;56.878;60.672;2022-11-20T02:06:23;98752.09;;;21.86;21.54
62524;BME280;53689;56.878;60.672;2022-11-20T02:08:51;98754.63;;;21.87;22.15
62524;BME280;53689;56.878;60.672;2022-11-20T02:11:19;98756.56;;;21.79;21.53
62524;BME280;53689;56.878;60.672;2022-11-20T02:13:47;98755.91;;;21.92;22.60
62524;BME280;53689;56.878;60.672;2022-11-20T02:16:21;98755.81;;;21.85;21.43
62524;BME280;53689;56.878;60.672;2022-11-20T02:18:49;98764.66;;;21.79;21.88
62524;BME280;53689;56.878;60.672;2022-11-20T02:21:28;98755.81;;;21.85;21.97
62524;BME280;53689;56.878;60.672;2022-11-20T02:24:04;98751.06;;;21.87;22.00
62524;BME280;53689;56.878;60.672;2022-11-20T02:26:38;98746.63;;;21.79;20.40
62524;BME280;53689;56.878;60.672;2022-11-20T02:29:07;98744.19;;;21.84;22.41
62524;BME280;53689;56.878;60.672;2022-11-20T02:31:39;98743.72;;;21.81;22.17
62524;BME280;53689;56.878;60.672;2022-11-20T02:34:07;98743.16;;;21.85;21.46
62524;BME280;53689;56.878;60.672;2022-11-20T02:36:36;98743.56;;;21.82;21.64
62524;BME280;53689;56.878;60.672;2022-11-20T02:39:08;98738.34;;;21.81;21.05
62524;BME280;53689;56.878;60.672;2022-11-20T02:41:37;98738.25;;;21.74;21.19
62524;BME280;53689;56.878;60.672;2022-11-20T02:44:05;98738.63;;;21.86;21.67
62524;BME280;53689;56.878;60.672;2022-11-20T02:46:33;98732.59;;;21.84;21.38
62524;BME280;53689;56.878;60.672;2022-11-20T02:49:01;98737.22;;;21.90;22.91
62524;BME280;53689;56.878;60.672;2022-11-20T02:51:29;98745.50;;;21.88;22.97
62524;BME280;53689;56.878;60.672;2022-11-20T02:53:57;98743.16;;;21.85;22.30
62524;BME280;53689;56.878;60.672;2022-11-20T02:56:26;98747.91;;;21.83;20.41
62524;BME280;53689;56.878;60.672;2022-11-20T02:58:54;98737.97;;;21.84;21.83
62524;BME280;53689;56.878;60.672;2022-11-20T03:01:21;98731.03;;;21.74;20.94
62524;BME280;53689;56.878;60.672;2022-11-20T03:03:49;98736.66;;;21.80;21.76
62524;BME280;53689;56.878;60.672;2022-11-20T03:06:16;98733.63;;;21.83;22.54
62524;BME280;53689;56.878;60.672;2022-11-20T03:08:43;98728.94;;;21.92;22.82
62524;BME280;53689;56.878;60.672;2022-11-20T03:11:11;98729.16;;;21.75;22.35
62524;BME280;53689;56.878;60.672;2022-11-20T03:13:40;98732.94;;;21.81;22.43
62524;BME280;53689;56.878;60.672;2022-11-20T03:16:10;98724.69;;;21.82;22.71
62524;BME280;53689;56.878;60.672;2022-11-20T03:18:38;98736.47;;;21.21;22.47
62524;BME280;53689;56.878;60.672;2022-11-20T03:21:06;98725.50;;;21.23;21.03
62524;BME280;53689;56.878;60.672;2022-11-20T03:23:34;98733.03;;;21.42;19.45
62524;BME280;53689;56.878;60.672;2022-11-20T03:26:13;98730.72;;;21.69;20.71
62524;BME280;53689;56.878;60.672;2022-11-20T03:28:46;98728.31;;;21.74;23.27
62524;BME280;53689;56.878;60.672;2022-11-20T03:31:15;98728.09;;;21.61;20.73
62524;BME280;53689;56.878;60.672;2022-11-20T03:33:43;98727.19;;;21.84;22.45
62524;BME280;53689;56.878;60.672;2022-11-20T03:36:12;98735.00;;;21.79;22.84
62524;BME280;53689;56.878;60.672;2022-11-20T03:38:40;98729.53;;;21.72;21.64
62524;BME280;53689;56.878;60.672;2022-11-20T03:41:09;98728.31;;;21.74;22.62
62524;BME280;53689;56.878;60.672;2022-11-20T03:43:37;98717.63;;;21.81;22.99
62524;BME280;53689;56.878;60.672;2022-11-20T03:46:07;98717.81;;;21.80;21.59
62524;BME280;53689;56.878;60.672;2022-11-20T03:48:34;98703.31;;;21.81;21.60
62524;BME280;53689;56.878;60.672;2022-11-20T03:51:12;98707.13;;;21.71;22.17
62524;BME280;53689;56.878;60.672;2022-11-20T03:53:40;98700.59;;;21.81;22.73
62524;BME280;53689;56.878;60.672;2022-11-20T03:56:09;98701.38;;;21.74;22.41
62524;BME280;53689;56.878;60.672;2022-11-20T03:58:39;98708.63;;;21.74;21.48
62524;BME280;53689;56.878;60.672;2022-11-20T04:01:10;98705.81;;;21.82;22.37
62524;BME280;53689;56.878;60.672;2022-11-20T04:03:39;98705.63;;;21.84;22.88
62524;BME280;53689;56.878;60.672;2022-11-20T04:06:08;98712.06;;;21.83;21.63
62524;BME280;53689;56.878;60.672;2022-11-20T04:08:36;98718.56;;;21.73;21.14
62524;BME280;53689;56.878;60.672;2022-11-20T04:11:11;98711.69;;;21.71;21.97
62524;BME280;53689;56.878;60.672;2022-11-20T04:13:40;98705.34;;;21.79;21.66
62524;BME280;53689;56.878;60.672;2022-11-20T04:16:09;98694.97;;;21.75;21.29
62524;BME280;53689;56.878;60.672;2022-11-20T04:18:37;98688.16;;;21.80;21.70
62524;BME280;53689;56.878;60.672;2022-11-20T04:21:05;98693.09;;;21.76;21.87
62524;BME280;53689;56.878;60.672;2022-11-20T04:23:33;98690.66;;;21.81;21.44
62524;BME280;53689;56.878;60.672;2022-11-20T04:26:01;98678.63;;;21.77;22.32
62524;BME280;53689;56.878;60.672;2022-11-20T04:28:28;98689.81;;;21.81;22.80
62524;BME280;53689;56.878;60.672;2022-11-20T04:31:02;98689.66;;;21.82;22.10
62524;BME280;53689;56.878;60.672;2022-11-20T04:33:32;98695.88;;;21.83;21.71
62524;BME280;53689;56.878;60.672;2022-11-20T04:36:02;98699.41;;;21.83;21.94
62524;BME280;53689;56.878;60.672;2022-11-20T04:38:30;98701.84;;;21.78;21.79
62524;BME280;53689;56.878;60.672;2022-11-20T04:40:58;98698.47;;;21.76;22.51
62524;BME280;53689;56.878;60.672;2022-11-20T04:43:26;98691.63;;;21.73;21.29
62524;BME280;53689;56.878;60.672;2022-11-20T04:45:55;98694.41;;;21.80;19.66
62524;BME280;53689;56.878;60.672;2022-11-20T04:48:24;98692.25;;;21.75;20.96
62524;BME280;53689;56.878;60.672;2022-11-20T04:50:53;98700.88;;;21.86;21.71
62524;BME280;53689;56.878;60.672;2022-11-20T04:53:22;98694.47;;;21.87;21.81
62524;BME280;53689;56.878;60.672;2022-11-20T04:55:49;98704.59;;;21.85;21.95
62524;BME280;53689;56.878;60.672;2022-11-20T04:58:17;98693.72;;;21.93;22.78
62524;BME280;53689;56.878;60.672;2022-11-20T05:00:44;98695.69;;;21.69;22.72
62524;BME280;53689;56.878;60.672;2022-11-20T05:03:12;98688.16;;;21.80;22.37
62524;BME280;53689;56.878;60.672;2022-11-20T05:05:39;98685.22;;;21.74;23.48
62524;BME280;53689;56.878;60.672;2022-11-20T05:08:08;98693.66;;;21.86;21.50
62524;BME280;53689;56.878;60.672;2022-11-20T05:10:36;98688.44;;;21.85;22.43
62524;BME280;53689;56.878;60.672;2022-11-20T05:13:03;98691.38;;;21.90;21.06
62524;BME280;53689;56.878;60.672;2022-11-20T05:15:32;98676.72;;;21.78;22.30
62524;BME280;53689;56.878;60.672;2022-11-20T05:17:59;98684.91;;;21.84;21.67
62524;BME280;53689;56.878;60.672;2022-11-20T05:20:27;98685.09;;;21.83;21.64
62524;BME280;53689;56.878;60.672;2022-11-20T05:22:56;98686.66;;;21.92;21.61
62524;BME280;53689;56.878;60.672;2022-11-20T05:25:25;98674.56;;;21.88;20.06
62524;BME280;53689;56.878;60.672;2022-11-20T05:27:53;98669.97;;;21.82;22.46
62524;BME280;53689;56.878;60.672;2022-11-20T05:30:20;98673.19;;;21.92;22.73
62524;BME280;53689;56.878;60.672;2022-11-20T05:32:48;98673.94;;;21.86;22.06
62524;BME280;53689;56.878;60.672;2022-11-20T05:35:16;98675.88;;;21.92;22.19
62524;BME280;53689;56.878;60.672;2022-11-20T05:37:43;98679.50;;;21.84;19.65
62524;BME280;53689;56.878;60.672;2022-11-20T05:40:11;98680.88;;;21.95;22.79
62524;BME280;53689;56.878;60.672;2022-11-20T05:42:41;98684.84;;;21.99;22.64
62524;BME280;53689;56.878;60.672;2022-11-20T05:45:09;98668.38;;;21.87;21.93
62524;BME280;53689;56.878;60.672;2022-11-20T05:47:36;98665.47;;;21.89;21.71
62524;BME280;53689;56.878;60.672;2022-11-20T05:50:04;98664.81;;;21.87;22.19
62524;BME280;53689;56.878;60.672;2022-11-20T05:52:32;98666.13;;;21.91;21.64
62524;BME280;53689;56.878;60.672;2022-11-20T05:54:59;98664.56;;;21.82;20.47
62524;BME280;53689;56.878;60.672;2022-11-20T05:57:27;98663.03;;;21.94;20.50
62524;BME280;53689;56.878;60.672;2022-11-20T05:59:56;98664.06;;;21.93;22.20
62524;BME280;53689;56.878;60.672;2022-11-20T06:02:24;98651.69;;;21.99;21.13
62524;BME280;53689;56.878;60.672;2022-11-20T06:04:51;98663.03;;;21.94;21.23
62524;BME280;53689;56.878;60.672;2022-11-20T06:07:19;98663.28;;;21.99;22.96
62524;BME280;53689;56.878;60.672;2022-11-20T06:09:46;98661.72;;;21.90;22.33
62524;BME280;53689;56.878;60.672;2022-11-20T06:12:14;98651.41;;;21.94;22.69
62524;BME280;53689;56.878;60.672;2022-11-20T06:14:41;98651.03;;;21.97;22.50
62524;BME280;53689;56.878;60.672;2022-11-20T06:17:10;98657.91;;;21.99;21.33
62524;BME280;53689;56.878;60.672;2022-11-20T06:19:37;98664.31;;;21.98;23.32
62524;BME280;53689;56.878;60.672;2022-11-20T06:22:05;98662.66;;;21.97;22.28
62524;BME280;53689;56.878;60.672;2022-11-20T06:24:33;98665.75;;;21.94;20.88
62524;BME280;53689;56.878;60.672;2022-11-20T06:27:00;98664.94;;;22.00;22.63
62524;BME280;53689;56.878;60.672;2022-11-20T06:29:27;98658.94;;;21.98;21.77
62524;BME280;53689;56.878;60.672;2022-11-20T06:32:00;98666.25;;;22.04;22.60
62524;BME280;53689;56.878;60.672;2022-11-20T06:34:29;98663.84;;;21.95;22.25
62524;BME280;53689;56.878;60.672;2022-11-20T06:36:56;98662.00;;;21.95;21.07
62524;BME280;53689;56.878;60.672;2022-11-20T06:39:23;98654.31;;;21.92;22.11
62524;BME280;53689;56.878;60.672;2022-11-20T06:41:51;98652.31;;;22.01;22.37
62524;BME280;53689;56.878;60.672;2022-11-20T06:44:25;98651.03;;;21.97;22.93
62524;BME280;53689;56.878;60.672;2022-11-20T06:46:52;98652.31;;;22.01;22.50
62524;BME280;53689;56.878;60.672;2022-11-20T06:49:20;98645.25;;;22.00;23.12
62524;BME280;53689;56.878;60.672;2022-11-20T06:51:49;98642.00;;;22.04;22.74
62524;BME280;53689;56.878;60.672;2022-11-20T06:54:16;98642.28;;;21.95;22.96
62524;BME280;53689;56.878;60.672;2022-11-20T06:56:46;98640.16;;;21.90;22.53
62524;BME280;53689;56.878;60.672;2022-11-20T06:59:13;98635.75;;;22.04;22.68
62524;BME280;53689;56.878;60.672;2022-11-20T07:01:41;98643.38;;;22.00;21.74
62524;BME280;53689;56.878;60.672;2022-11-20T07:04:08;98642.81;;;22.05;23.15
62524;BME280;53689;56.878;60.672;2022-11-20T07:06:36;98644.06;;;22.02;22.67
62524;BME280;53689;56.878;60.672;2022-11-20T07:09:05;98639.28;;;22.04;22.27
62524;BME280;53689;56.878;60.672;2022-11-20T07:11:38;98633.44;;;22.01;22.00
62524;BME280;53689;56.878;60.672;2022-11-20T07:14:06;98627.47;;;22.06;22.81
62524;BME280;53689;56.878;60.672;2022-11-20T07:16:33;98635.38;;;22.07;22.08
62524;BME280;53689;56.878;60.672;2022-11-20T07:19:00;98638.00;;;22.00;22.51
62524;BME280;53689;56.878;60.672;2022-11-20T07:21:28;98641.53;;;22.01;22.84
62524;BME280;53689;56.878;60.672;2022-11-20T07:23:55;98634.94;;;22.03;21.80
62524;BME280;53689;56.878;60.672;2022-11-20T07:26:24;98639.13;;;22.06;22.21
62524;BME280;53689;56.878;60.672;2022-11-20T07:28:51;98627.75;;;22.11;22.94
62524;BME280;53689;56.878;60.672;2022-11-20T07:31:19;98621.50;;;22.10;22.55
62524;BME280;53689;56.878;60.672;2022-11-20T07:33:46;98622.94;;;22.06;22.63
62524;BME280;53689;56.878;60.672;2022-11-20T07:36:14;98624.34;;;22.02;22.25
62524;BME280;53689;56.878;60.672;2022-11-20T07:38:41;98624.16;;;22.03;21.83
62524;BME280;53689;56.878;60.672;2022-11-20T07:41:09;98627.09;;;22.09;22.13
62524;BME280;53689;56.878;60.672;2022-11-20T07:43:38;98621.06;;;22.07;22.49
62524;BME280;53689;56.878;60.672;2022-11-20T07:46:07;98626.84;;;22.03;22.48
62524;BME280;53689;56.878;60.672;2022-11-20T07:48:35;98622.53;;;22.09;21.37
62524;BME280;53689;56.878;60.672;2022-11-20T07:51:02;98631.22;;;22.04;22.73
62524;BME280;53689;56.878;60.672;2022-11-20T07:53:29;98621.19;;;21.98;22.10
62524;BME280;53689;56.878;60.672;2022-11-20T07:55:59;98627.03;;;22.02;22.38
62524;BME280;53689;56.878;60.672;2022-11-20T07:58:29;98622.09;;;22.06;22.71
62524;BME280;53689;56.878;60.672;2022-11-20T08:01:02;98626.63;;;22.05;21.46
62524;BME280;53689;56.878;60.672;2022-11-20T08:03:29;98623.75;;;22.07;22.32
62524;BME280;53689;56.878;60.672;2022-11-20T08:05:58;98621.69;;;22.09;22.86
62524;BME280;53689;56.878;60.672;2022-11-20T08:08:26;98627.94;;;22.09;22.52
62524;BME280;53689;56.878;60.672;2022-11-20T08:10:53;98625.41;;;22.08;22.55
62524;BME280;53689;56.878;60.672;2022-11-20T08:13:21;98623.38;;;22.10;22.84
62524;BME280;53689;56.878;60.672;2022-11-20T08:15:49;98615.47;;;22.08;21.42
62524;BME280;53689;56.878;60.672;2022-11-20T08:18:18;98614.28;;;22.11;22.89
62524;BME280;53689;56.878;60.672;2022-11-20T08:21:04;98619.66;;;22.11;22.20
62524;BME280;53689;56.878;60.672;2022-11-20T08:23:32;98610.03;;;22.01;20.86
62524;BME280;53689;56.878;60.672;2022-11-20T08:26:00;98616.25;;;22.02;22.38
62524;BME280;53689;56.878;60.672;2022-11-20T08:28:27;98607.56;;;22.07;22.66
62524;BME280;53689;56.878;60.672;2022-11-20T08:30:58;98610.72;;;22.10;22.17
62524;BME280;53689;56.878;60.672;2022-11-20T08:33:27;98610.91;;;22.09;21.62
62524;BME280;53689;56.878;60.672;2022-11-20T08:35:59;98608.44;;;22.07;22.43
62524;BME280;53689;56.878;60.672;2022-11-20T08:38:27;98609.19;;;22.01;21.99
62524;BME280;53689;56.878;60.672;2022-11-20T08:40:56;98604.25;;;22.04;22.80
62524;BME280;53689;56.878;60.672;2022-11-20T08:43:24;98593.69;;;22.10;22.98
62524;BME280;53689;56.878;60.672;2022-11-20T08:45:51;98607.75;;;22.05;21.94
62524;BME280;53689;56.878;60.672;2022-11-20T08:48:19;98601.09;;;22.01;21.92
62524;BME280;53689;56.878;60.672;2022-11-20T08:50:48;98595.19;;;22.12;22.21
62524;BME280;53689;56.878;60.672;2022-11-20T08:53:15;98598.47;;;22.08;21.91
62524;BME280;53689;56.878;60.672;2022-11-20T08:55:43;98586.63;;;22.09;23.00
62524;BME280;53689;56.878;60.672;2022-11-20T08:58:10;98590.19;;;22.09;22.54
62524;BME280;53689;56.878;60.672;2022-11-20T09:00:37;98592.50;;;22.12;22.85
62524;BME280;53689;56.878;60.672;2022-11-20T09:03:05;98591.97;;;22.02;21.97
62524;BME280;53689;56.878;60.672;2022-11-20T09:05:32;98592.63;;;22.04;21.46
62524;BME280;53689;56.878;60.672;2022-11-20T09:08:01;98595.13;;;22.06;21.44
62524;BME280;53689;56.878;60.672;2022-11-20T09:10:29;98591.41;;;22.07;22.69
62524;BME280;53689;56.878;60.672;2022-11-20T09:12:57;98589.09;;;22.03;21.86
62524;BME280;53689;56.878;60.672;2022-11-20T09:15:25;98579.34;;;22.02;20.70
62524;BME280;53689;56.878;60.672;2022-11-20T09:17:53;98576.06;;;22.07;23.23
62524;BME280;53689;56.878;60.672;2022-11-20T09:20:21;98573.63;;;22.12;22.86
62524;BME280;53689;56.878;60.672;2022-11-20T09:22:49;98578.03;;;21.98;21.22
62524;BME280;53689;56.878;60.672;2022-11-20T09:25:18;98572.41;;;22.15;23.06
62524;BME280;53689;56.878;60.672;2022-11-20T09:27:46;98571.13;;;22.11;22.52
62524;BME280;53689;56.878;60.672;2022-11-20T09:30:14;98579.84;;;22.13;22.18
62524;BME280;53689;56.878;60.672;2022-11-20T09:32:42;98582.78;;;22.18;22.79
62524;BME280;53689;56.878;60.672;2022-11-20T09:35:10;98586.91;;;22.14;22.52
62524;BME280;53689;56.878;60.672;2022-11-20T09:37:38;98579.84;;;22.13;22.45
62524;BME280;53689;56.878;60.672;2022-11-20T09:40:06;98587.38;;;22.17;22.38
62524;BME280;53689;56.878;60.672;2022-11-20T09:42:41;98576.56;;;22.17;21.95
62524;BME280;53689;56.878;60.672;2022-11-20T09:45:21;98574.81;;;22.10;21.19
62524;BME280;53689;56.878;60.672;2022-11-20T09:48:07;98575.28;;;22.13;22.19
62524;BME280;53689;56.878;60.672;2022-11-20T09:50:43;98568.84;;;22.14;21.41
62524;BME280;53689;56.878;60.672;2022-11-20T09:53:20;98573.25;;;22.15;22.86
62524;BME280;53689;56.878;60.672;2022-11-20T09:55:52;98573.25;;;22.15;21.96
62524;BME280;53689;56.878;60.672;2022-11-20T09:58:27;98562.50;;;22.22;23.16
62524;BME280;53689;56.878;60.672;2022-11-20T10:00:57;98566.59;;;22.18;22.82
62524;BME280;53689;56.878;60.672;2022-11-20T10:03:37;98564.56;;;22.20;22.41
62524;BME280;53689;56.878;60.672;2022-11-20T10:06:11;98566.25;;;22.21;21.79
62524;BME280;53689;56.878;60.672;2022-11-20T10:08:43;98569.56;;;22.23;22.17
62524;BME280;53689;56.878;60.672;2022-11-20T10:11:16;98559.19;;;22.20;21.83
62524;BME280;53689;56.878;60.672;2022-11-20T10:13:54;98562.88;;;22.19;20.45
62524;BME280;53689;56.878;60.672;2022-11-20T10:16:32;98562.06;;;22.18;21.98
62524;BME280;53689;56.878;60.672;2022-11-20T10:19:18;98567.06;;;22.22;21.96
62524;BME280;53689;56.878;60.672;2022-11-20T10:21:57;98569.13;;;22.20;22.36
62524;BME280;53689;56.878;60.672;2022-11-20T10:24:46;98563.53;;;22.21;21.43
62524;BME280;53689;56.878;60.672;2022-11-20T10:27:47;98558.50;;;22.18;22.46
62524;BME280;53689;56.878;60.672;2022-11-20T10:30:20;98564.34;;;22.22;22.58
62524;BME280;53689;56.878;60.672;2022-11-20T10:32:50;98558.97;;;22.22;22.12
62524;BME280;53689;56.878;60.672;2022-11-20T10:35:22;98562.09;;;22.25;22.64
62524;BME280;53689;56.878;60.672;2022-11-20T10:37:55;98573.59;;;22.34;22.84
62524;BME280;53689;56.878;60.672;2022-11-20T10:40:30;98561.66;;;22.22;22.06
62524;BME280;53689;56.878;60.672;2022-11-20T10:43:01;98563.41;;;22.29;22.60
62524;BME280;53689;56.878;60.672;2022-11-20T10:45:51;98558.81;;;22.30;22.65
62524;BME280;53689;56.878;60.672;2022-11-20T10:48:23;98561.34;;;22.31;22.64
62524;BME280;53689;56.878;60.672;2022-11-20T10:51:03;98565.69;;;22.33;22.23
62524;BME280;53689;56.878;60.672;2022-11-20T10:53:58;98561.34;;;22.31;21.98
62524;BME280;53689;56.878;60.672;2022-11-20T10:56:34;98557.34;;;22.27;22.41
62524;BME280;53689;56.878;60.672;2022-11-20T10:59:13;98560.03;;;22.27;22.01
62524;BME280;53689;56.878;60.672;2022-11-20T11:01:52;98550.75;;;22.30;23.04
62524;BME280;53689;56.878;60.672;2022-11-20T11:04:32;98561.72;;;22.28;21.98
62524;BME280;53689;56.878;60.672;2022-11-20T11:07:10;98561.28;;;22.25;23.01
62524;BME280;53689;56.878;60.672;2022-11-20T11:09:43;98556.72;;;22.25;20.97
62524;BME280;53689;56.878;60.672;2022-11-20T11:12:11;98558.38;;;22.26;22.68
62524;BME280;53689;56.878;60.672;2022-11-20T11:14:45;98555.91;;;22.25;23.31
62524;BME280;53689;56.878;60.672;2022-11-20T11:17:26;98554.66;;;22.27;22.40
62524;BME280;53689;56.878;60.672;2022-11-20T11:19:59;98552.97;;;22.26;21.60
62524;BME280;53689;56.878;60.672;2022-11-20T11:22:29;98548.44;;;22.27;22.38
62524;BME280;53689;56.878;60.672;2022-11-20T11:24:57;98545.53;;;22.28;22.71
62524;BME280;53689;56.878;60.672;2022-11-20T11:27:25;98548.81;;;22.24;22.45
62524;BME280;53689;56.878;60.672;2022-11-20T11:30:10;98544.91;;;22.26;22.42
62524;BME280;53689;56.878;60.672;2022-11-20T11:32:39;98546.38;;;22.29;22.48
62524;BME280;53689;56.878;60.672;2022-11-20T11:35:19;98552.97;;;22.26;22.91
62524;BME280;53689;56.878;60.672;2022-11-20T11:37:47;98550.91;;;22.28;22.53
62524;BME280;53689;56.878;60.672;2022-11-20T11:40:15;98546.19;;;22.30;22.68
62524;BME280;53689;56.878;60.672;2022-11-20T11:42:54;98548.03;;;22.30;22.81
62524;BME280;53689;56.878;60.672;2022-11-20T11:45:24;98548.44;;;22.27;22.80
62524;BME280;53689;56.878;60.672;2022-11-20T11:47:54;98543.88;;;22.27;22.33
62524;BME280;53689;56.878;60.672;2022-11-20T11:50:23;98548.00;;;22.23;20.74
62524;BME280;53689;56.878;60.672;2022-11-20T11:52:58;98544.13;;;22.33;22.98
62524;BME280;53689;56.878;60.672;2022-11-20T11:55:32;98541.38;;;22.26;22.19
62524;BME280;53689;56.878;60.672;2022-11-20T11:58:30;98555.94;;;22.31;22.35
62524;BME280;53689;56.878;60.672;2022-11-20T12:01:03;98546.63;;;22.34;22.67
62524;BME280;53689;56.878;60.672;2022-11-20T12:03:36;98551.38;;;22.32;21.85
62524;BME280;53689;56.878;60.672;2022-11-20T12:06:08;98546.81;;;22.33;22.75
62524;BME280;53689;56.878;60.672;2022-11-20T12:08:44;98547.22;;;22.29;21.74
62524;BME280;53689;56.878;60.672;2022-11-20T12:11:16;98551.59;;;22.30;22.55
62524;BME280;53689;56.878;60.672;2022-11-20T12:13:52;98557.56;;;22.26;21.97
62524;BME280;53689;56.878;60.672;2022-11-20T12:16:21;98550.56;;;22.31;21.81
62524;BME280;53689;56.878;60.672;2022-11-20T12:18:51;98547.44;;;22.35;22.91
62524;BME280;53689;56.878;60.672;2022-11-20T12:21:28;98548.03;;;22.30;21.69
62524;BME280;53689;56.878;60.672;2022-11-20T12:24:08;98548.03;;;22.30;20.99
62524;BME280;53689;56.878;60.672;2022-11-20T12:26:51;98545.78;;;22.34;22.80
62524;BME280;53689;56.878;60.672;2022-11-20T12:29:30;98543.09;;;22.34;21.71
62524;BME280;53689;56.878;60.672;2022-11-20T12:32:25;98545.34;;;22.30;22.99
62524;BME280;53689;56.878;60.672;2022-11-20T12:35:05;98538.53;;;22.34;22.87
62524;BME280;53689;56.878;60.672;2022-11-20T12:37:45;98534.59;;;22.37;22.54
62524;BME280;53689;56.878;60.672;2022-11-20T12:40:28;98540.38;;;22.34;20.60
62524;BME280;53689;56.878;60.672;2022-11-20T12:43:03;98538.78;;;22.39;21.47
62524;BME280;53689;56.878;60.672;2022-11-20T12:45:50;98531.44;;;22.33;21.87
62524;BME280;53689;56.878;60.672;2022-11-20T12:48:42;98543.09;;;22.34;22.73
62524;BME280;53689;56.878;60.672;2022-11-20T12:51:24;98535.84;;;22.34;22.84
62524;BME280;53689;56.878;60.672;2022-11-20T12:54:24;98538.31;;;22.36;23.11
62524;BME280;53689;56.878;60.672;2022-11-20T12:57:00;98535.63;;;22.36;22.96
62524;BME280;53689;56.878;60.672;2022-11-20T12:59:45;98530.03;;;22.37;21.66
62524;BME280;53689;56.878;60.672;2022-11-20T13:02:24;98527.16;;;22.39;21.89
62524;BME280;53689;56.878;60.672;2022-11-20T13:05:15;98530.22;;;22.36;22.65
62524;BME280;53689;56.878;60.672;2022-11-20T13:07:48;98521.69;;;22.32;22.73
62524;BME280;53689;56.878;60.672;2022-11-20T13:10:22;98525.69;;;22.36;22.63